sensor_id;sensor_type;location;lat;lon;timestamp;P1;durP1;ratioP1;P2;durP2;ratioP2
35312;SDS011;21425;50.454;30.466;2022-08-01T00:00:34;9.30;;;2.83;;
35312;SDS011;21425;50.454;30.466;2022-08-01T00:02:59;4.90;;;2.90;;
35312;SDS011;21425;50.454;30.466;2022-08-01T00:05:25;7.80;;;3.33;;
35312;SDS011;21425;50.454;30.466;2022-08-01T00:07:51;10.02;;;2.83;;
35312;SDS011;21425;50.454;30.466;2022-08-01T00:10:17;6.13;;;2.90;;
35312;SDS011;21425;50.454;30.466;2022-08-01T00:12:43;4.75;;;2.72;;
35312;SDS011;21425;50.454;30.466;2022-08-01T00:15:10;5.18;;;2.55;;
35312;SDS011;21425;50.454;30.466;2022-08-01T00:17:37;4.93;;;2.60;;
35312;SDS011;21425;50.454;30.466;2022-08-01T00:20:04;5.13;;;2.92;;
35312;SDS011;21425;50.454;30.466;2022-08-01T00:22:31;5.38;;;2.88;;
35312;SDS011;21425;50.454;30.466;2022-08-01T00:24:57;5.07;;;2.78;;
35312;SDS011;21425;50.454;30.466;2022-08-01T00:27:23;4.80;;;3.20;;
35312;SDS011;21425;50.454;30.466;2022-08-01T00:29:49;6.03;;;3.17;;
35312;SDS011;21425;50.454;30.466;2022-08-01T00:32:14;5.85;;;2.50;;
35312;SDS011;21425;50.454;30.466;2022-08-01T00:34:40;9.45;;;2.70;;
35312;SDS011;21425;50.454;30.466;2022-08-01T00:37:05;6.82;;;3.17;;
35312;SDS011;21425;50.454;30.466;2022-08-01T00:39:31;6.00;;;2.72;;
35312;SDS011;21425;50.454;30.466;2022-08-01T00:41:58;7.20;;;3.05;;
35312;SDS011;21425;50.454;30.466;2022-08-01T00:44:24;6.38;;;3.28;;
35312;SDS011;21425;50.454;30.466;2022-08-01T00:46:50;7.13;;;2.70;;
35312;SDS011;21425;50.454;30.466;2022-08-01T00:49:16;5.72;;;2.92;;
35312;SDS011;21425;50.454;30.466;2022-08-01T00:51:42;5.45;;;2.67;;
35312;SDS011;21425;50.454;30.466;2022-08-01T00:54:07;5.38;;;2.90;;
35312;SDS011;21425;50.454;30.466;2022-08-01T00:56:33;10.07;;;3.53;;
35312;SDS011;21425;50.454;30.466;2022-08-01T00:58:59;7.45;;;3.38;;
35312;SDS011;21425;50.454;30.466;2022-08-01T01:01:25;5.38;;;3.10;;
35312;SDS011;21425;50.454;30.466;2022-08-01T01:03:50;4.60;;;2.80;;
35312;SDS011;21425;50.454;30.466;2022-08-01T01:09:14;4.95;;;3.17;;
35312;SDS011;21425;50.454;30.466;2022-08-01T01:12:05;4.82;;;2.90;;
35312;SDS011;21425;50.454;30.466;2022-08-01T01:17:46;5.20;;;3.42;;
35312;SDS011;21425;50.454;30.466;2022-08-01T01:20:23;4.25;;;2.83;;
35312;SDS011;21425;50.454;30.466;2022-08-01T01:23:05;7.07;;;3.70;;
35312;SDS011;21425;50.454;30.466;2022-08-01T01:31:43;4.78;;;3.63;;
35312;SDS011;21425;50.454;30.466;2022-08-01T01:34:12;4.63;;;3.33;;
35312;SDS011;21425;50.454;30.466;2022-08-01T01:36:40;3.83;;;2.88;;
35312;SDS011;21425;50.454;30.466;2022-08-01T01:39:07;11.57;;;3.92;;
35312;SDS011;21425;50.454;30.466;2022-08-01T01:41:33;6.78;;;3.30;;
35312;SDS011;21425;50.454;30.466;2022-08-01T01:44:01;5.00;;;3.25;;
35312;SDS011;21425;50.454;30.466;2022-08-01T01:46:29;5.18;;;3.45;;
35312;SDS011;21425;50.454;30.466;2022-08-01T01:48:56;9.85;;;4.13;;
35312;SDS011;21425;50.454;30.466;2022-08-01T01:51:24;7.07;;;3.45;;
35312;SDS011;21425;50.454;30.466;2022-08-01T01:53:52;7.82;;;3.53;;
35312;SDS011;21425;50.454;30.466;2022-08-01T01:56:20;5.22;;;3.25;;
35312;SDS011;21425;50.454;30.466;2022-08-01T01:58:48;6.30;;;3.90;;
35312;SDS011;21425;50.454;30.466;2022-08-01T02:03:48;5.15;;;3.20;;
35312;SDS011;21425;50.454;30.466;2022-08-01T02:06:16;8.85;;;3.00;;
35312;SDS011;21425;50.454;30.466;2022-08-01T02:08:42;5.50;;;3.70;;
35312;SDS011;21425;50.454;30.466;2022-08-01T02:11:08;5.13;;;3.53;;
35312;SDS011;21425;50.454;30.466;2022-08-01T02:13:45;5.78;;;3.42;;
35312;SDS011;21425;50.454;30.466;2022-08-01T02:16:17;7.32;;;3.95;;
35312;SDS011;21425;50.454;30.466;2022-08-01T02:18:44;9.88;;;4.07;;
35312;SDS011;21425;50.454;30.466;2022-08-01T02:21:10;8.52;;;3.25;;
35312;SDS011;21425;50.454;30.466;2022-08-01T02:23:41;12.88;;;3.90;;
35312;SDS011;21425;50.454;30.466;2022-08-01T02:26:09;9.75;;;3.53;;
35312;SDS011;21425;50.454;30.466;2022-08-01T02:28:49;5.40;;;3.13;;
35312;SDS011;21425;50.454;30.466;2022-08-01T02:31:21;8.40;;;3.70;;
35312;SDS011;21425;50.454;30.466;2022-08-01T02:33:51;8.95;;;3.95;;
35312;SDS011;21425;50.454;30.466;2022-08-01T02:36:30;6.90;;;3.47;;
35312;SDS011;21425;50.454;30.466;2022-08-01T02:38:59;5.22;;;3.40;;
35312;SDS011;21425;50.454;30.466;2022-08-01T02:41:29;8.52;;;3.83;;
35312;SDS011;21425;50.454;30.466;2022-08-01T02:43:59;7.25;;;4.03;;
35312;SDS011;21425;50.454;30.466;2022-08-01T02:46:33;12.15;;;3.70;;
35312;SDS011;21425;50.454;30.466;2022-08-01T02:49:09;6.32;;;3.50;;
35312;SDS011;21425;50.454;30.466;2022-08-01T02:51:37;6.18;;;3.03;;
35312;SDS011;21425;50.454;30.466;2022-08-01T02:54:05;7.47;;;3.83;;
35312;SDS011;21425;50.454;30.466;2022-08-01T02:56:33;8.45;;;3.63;;
35312;SDS011;21425;50.454;30.466;2022-08-01T02:59:01;6.35;;;3.63;;
35312;SDS011;21425;50.454;30.466;2022-08-01T03:01:32;7.05;;;3.30;;
35312;SDS011;21425;50.454;30.466;2022-08-01T03:04:00;5.70;;;3.90;;
35312;SDS011;21425;50.454;30.466;2022-08-01T03:06:26;9.88;;;3.28;;
35312;SDS011;21425;50.454;30.466;2022-08-01T03:08:53;6.75;;;3.65;;
35312;SDS011;21425;50.454;30.466;2022-08-01T03:11:20;8.35;;;3.78;;
35312;SDS011;21425;50.454;30.466;2022-08-01T03:13:49;4.07;;;3.20;;
35312;SDS011;21425;50.454;30.466;2022-08-01T03:16:16;4.97;;;2.88;;
35312;SDS011;21425;50.454;30.466;2022-08-01T03:18:43;6.45;;;3.47;;
35312;SDS011;21425;50.454;30.466;2022-08-01T03:21:11;5.20;;;3.05;;
35312;SDS011;21425;50.454;30.466;2022-08-01T03:23:38;6.70;;;3.20;;
35312;SDS011;21425;50.454;30.466;2022-08-01T03:26:06;5.47;;;2.92;;
35312;SDS011;21425;50.454;30.466;2022-08-01T03:28:32;8.02;;;3.10;;
35312;SDS011;21425;50.454;30.466;2022-08-01T03:30:58;3.75;;;3.00;;
35312;SDS011;21425;50.454;30.466;2022-08-01T03:33:25;6.65;;;3.25;;
35312;SDS011;21425;50.454;30.466;2022-08-01T03:35:52;8.50;;;3.63;;
35312;SDS011;21425;50.454;30.466;2022-08-01T03:38:21;7.22;;;3.88;;
35312;SDS011;21425;50.454;30.466;2022-08-01T03:40:52;6.60;;;4.05;;
35312;SDS011;21425;50.454;30.466;2022-08-01T03:43:27;8.02;;;4.00;;
35312;SDS011;21425;50.454;30.466;2022-08-01T03:45:55;6.25;;;3.72;;
35312;SDS011;21425;50.454;30.466;2022-08-01T03:48:28;5.43;;;2.93;;
35312;SDS011;21425;50.454;30.466;2022-08-01T03:50:56;5.07;;;3.03;;
35312;SDS011;21425;50.454;30.466;2022-08-01T03:53:25;9.50;;;3.17;;
35312;SDS011;21425;50.454;30.466;2022-08-01T03:55:54;5.57;;;3.33;;
35312;SDS011;21425;50.454;30.466;2022-08-01T03:58:22;4.03;;;2.67;;
35312;SDS011;21425;50.454;30.466;2022-08-01T04:00:48;8.65;;;3.40;;
35312;SDS011;21425;50.454;30.466;2022-08-01T04:03:14;5.07;;;3.00;;
35312;SDS011;21425;50.454;30.466;2022-08-01T04:05:42;6.82;;;2.97;;
35312;SDS011;21425;50.454;30.466;2022-08-01T04:08:08;4.95;;;2.80;;
35312;SDS011;21425;50.454;30.466;2022-08-01T04:10:34;7.07;;;2.75;;
35312;SDS011;21425;50.454;30.466;2022-08-01T04:13:00;4.93;;;2.75;;
35312;SDS011;21425;50.454;30.466;2022-08-01T04:15:25;7.97;;;2.53;;
35312;SDS011;21425;50.454;30.466;2022-08-01T04:17:51;5.28;;;2.53;;
35312;SDS011;21425;50.454;30.466;2022-08-01T04:20:18;5.80;;;2.67;;
35312;SDS011;21425;50.454;30.466;2022-08-01T04:22:44;9.93;;;2.90;;
35312;SDS011;21425;50.454;30.466;2022-08-01T04:25:13;3.55;;;2.33;;
35312;SDS011;21425;50.454;30.466;2022-08-01T04:27:46;6.75;;;2.50;;
35312;SDS011;21425;50.454;30.466;2022-08-01T04:30:14;5.22;;;2.67;;
35312;SDS011;21425;50.454;30.466;2022-08-01T04:32:41;9.85;;;2.70;;
35312;SDS011;21425;50.454;30.466;2022-08-01T04:35:11;12.38;;;2.83;;
35312;SDS011;21425;50.454;30.466;2022-08-01T04:37:38;5.88;;;2.28;;
35312;SDS011;21425;50.454;30.466;2022-08-01T04:40:05;5.88;;;2.92;;
35312;SDS011;21425;50.454;30.466;2022-08-01T04:42:33;6.93;;;2.47;;
35312;SDS011;21425;50.454;30.466;2022-08-01T04:44:59;5.13;;;2.53;;
35312;SDS011;21425;50.454;30.466;2022-08-01T04:47:25;9.20;;;2.63;;
35312;SDS011;21425;50.454;30.466;2022-08-01T04:49:51;4.10;;;2.10;;
35312;SDS011;21425;50.454;30.466;2022-08-01T04:52:18;9.15;;;2.50;;
35312;SDS011;21425;50.454;30.466;2022-08-01T04:54:44;5.18;;;2.28;;
35312;SDS011;21425;50.454;30.466;2022-08-01T04:57:11;8.65;;;2.28;;
35312;SDS011;21425;50.454;30.466;2022-08-01T04:59:37;12.38;;;2.45;;
35312;SDS011;21425;50.454;30.466;2022-08-01T05:02:09;4.53;;;2.13;;
35312;SDS011;21425;50.454;30.466;2022-08-01T05:04:36;4.03;;;1.98;;
35312;SDS011;21425;50.454;30.466;2022-08-01T05:07:03;4.57;;;2.33;;
35312;SDS011;21425;50.454;30.466;2022-08-01T05:09:29;3.20;;;2.00;;
35312;SDS011;21425;50.454;30.466;2022-08-01T05:11:55;4.53;;;1.90;;
35312;SDS011;21425;50.454;30.466;2022-08-01T05:14:23;4.72;;;2.15;;
35312;SDS011;21425;50.454;30.466;2022-08-01T05:16:50;4.18;;;2.00;;
35312;SDS011;21425;50.454;30.466;2022-08-01T05:19:16;5.55;;;2.10;;
35312;SDS011;21425;50.454;30.466;2022-08-01T05:21:42;6.05;;;2.40;;
35312;SDS011;21425;50.454;30.466;2022-08-01T05:24:07;3.00;;;2.00;;
35312;SDS011;21425;50.454;30.466;2022-08-01T05:26:33;5.13;;;2.33;;
35312;SDS011;21425;50.454;30.466;2022-08-01T05:28:59;10.10;;;2.97;;
35312;SDS011;21425;50.454;30.466;2022-08-01T05:31:25;2.45;;;1.90;;
35312;SDS011;21425;50.454;30.466;2022-08-01T05:33:50;6.47;;;2.63;;
35312;SDS011;21425;50.454;30.466;2022-08-01T05:36:16;4.68;;;2.00;;
35312;SDS011;21425;50.454;30.466;2022-08-01T05:38:42;4.18;;;2.38;;
35312;SDS011;21425;50.454;30.466;2022-08-01T05:41:07;8.25;;;3.10;;
35312;SDS011;21425;50.454;30.466;2022-08-01T05:43:33;4.05;;;2.10;;
35312;SDS011;21425;50.454;30.466;2022-08-01T05:45:58;5.13;;;2.03;;
35312;SDS011;21425;50.454;30.466;2022-08-01T05:48:24;6.40;;;2.38;;
35312;SDS011;21425;50.454;30.466;2022-08-01T05:50:50;4.63;;;2.10;;
35312;SDS011;21425;50.454;30.466;2022-08-01T05:53:16;8.85;;;2.58;;
35312;SDS011;21425;50.454;30.466;2022-08-01T05:55:41;9.07;;;2.40;;
35312;SDS011;21425;50.454;30.466;2022-08-01T05:58:07;5.35;;;2.50;;
35312;SDS011;21425;50.454;30.466;2022-08-01T06:00:32;6.55;;;2.80;;
35312;SDS011;21425;50.454;30.466;2022-08-01T06:02:58;5.25;;;2.15;;
35312;SDS011;21425;50.454;30.466;2022-08-01T06:05:24;7.32;;;2.40;;
35312;SDS011;21425;50.454;30.466;2022-08-01T06:07:49;7.30;;;2.70;;
35312;SDS011;21425;50.454;30.466;2022-08-01T06:10:15;3.97;;;2.63;;
35312;SDS011;21425;50.454;30.466;2022-08-01T06:12:40;6.18;;;2.65;;
35312;SDS011;21425;50.454;30.466;2022-08-01T06:15:06;6.43;;;3.03;;
35312;SDS011;21425;50.454;30.466;2022-08-01T06:17:32;7.85;;;3.35;;
35312;SDS011;21425;50.454;30.466;2022-08-01T06:19:58;8.57;;;3.17;;
35312;SDS011;21425;50.454;30.466;2022-08-01T06:22:24;5.93;;;2.90;;
35312;SDS011;21425;50.454;30.466;2022-08-01T06:24:50;4.88;;;2.47;;
35312;SDS011;21425;50.454;30.466;2022-08-01T06:27:16;6.10;;;2.63;;
35312;SDS011;21425;50.454;30.466;2022-08-01T06:29:41;6.85;;;2.47;;
35312;SDS011;21425;50.454;30.466;2022-08-01T06:32:08;4.53;;;2.42;;
35312;SDS011;21425;50.454;30.466;2022-08-01T06:34:34;6.95;;;2.92;;
35312;SDS011;21425;50.454;30.466;2022-08-01T06:37:00;4.85;;;2.38;;
35312;SDS011;21425;50.454;30.466;2022-08-01T06:39:26;4.10;;;2.50;;
35312;SDS011;21425;50.454;30.466;2022-08-01T06:41:51;6.95;;;2.60;;
35312;SDS011;21425;50.454;30.466;2022-08-01T06:44:17;5.80;;;2.65;;
35312;SDS011;21425;50.454;30.466;2022-08-01T06:46:43;5.38;;;2.92;;
35312;SDS011;21425;50.454;30.466;2022-08-01T06:49:08;5.43;;;2.55;;
35312;SDS011;21425;50.454;30.466;2022-08-01T06:51:34;7.95;;;2.70;;
35312;SDS011;21425;50.454;30.466;2022-08-01T06:53:59;12.70;;;2.80;;
35312;SDS011;21425;50.454;30.466;2022-08-01T06:56:25;3.92;;;2.58;;
35312;SDS011;21425;50.454;30.466;2022-08-01T06:58:51;3.20;;;2.50;;
35312;SDS011;21425;50.454;30.466;2022-08-01T07:01:16;6.13;;;2.92;;
35312;SDS011;21425;50.454;30.466;2022-08-01T07:03:42;6.20;;;2.50;;
35312;SDS011;21425;50.454;30.466;2022-08-01T07:06:08;5.35;;;2.70;;
35312;SDS011;21425;50.454;30.466;2022-08-01T07:08:34;7.60;;;3.08;;
35312;SDS011;21425;50.454;30.466;2022-08-01T07:11:00;5.18;;;2.58;;
35312;SDS011;21425;50.454;30.466;2022-08-01T07:13:26;7.20;;;2.67;;
35312;SDS011;21425;50.454;30.466;2022-08-01T07:15:53;10.85;;;3.08;;
35312;SDS011;21425;50.454;30.466;2022-08-01T07:18:19;3.85;;;2.42;;
35312;SDS011;21425;50.454;30.466;2022-08-01T07:20:44;6.65;;;2.42;;
35312;SDS011;21425;50.454;30.466;2022-08-01T07:23:11;4.43;;;2.60;;
35312;SDS011;21425;50.454;30.466;2022-08-01T07:25:37;5.70;;;2.53;;
35312;SDS011;21425;50.454;30.466;2022-08-01T07:28:03;9.93;;;2.80;;
35312;SDS011;21425;50.454;30.466;2022-08-01T07:30:29;6.32;;;2.78;;
35312;SDS011;21425;50.454;30.466;2022-08-01T07:32:55;3.97;;;2.65;;
35312;SDS011;21425;50.454;30.466;2022-08-01T07:35:21;3.60;;;2.40;;
35312;SDS011;21425;50.454;30.466;2022-08-01T07:37:47;5.35;;;2.58;;
35312;SDS011;21425;50.454;30.466;2022-08-01T07:40:13;6.38;;;2.53;;
35312;SDS011;21425;50.454;30.466;2022-08-01T07:42:39;10.13;;;2.72;;
35312;SDS011;21425;50.454;30.466;2022-08-01T07:45:08;5.88;;;2.38;;
35312;SDS011;21425;50.454;30.466;2022-08-01T07:47:34;3.72;;;2.30;;
35312;SDS011;21425;50.454;30.466;2022-08-01T07:50:00;4.05;;;2.47;;
35312;SDS011;21425;50.454;30.466;2022-08-01T07:52:27;4.63;;;2.65;;
35312;SDS011;21425;50.454;30.466;2022-08-01T07:54:53;6.03;;;2.28;;
35312;SDS011;21425;50.454;30.466;2022-08-01T07:57:19;2.97;;;1.88;;
35312;SDS011;21425;50.454;30.466;2022-08-01T07:59:45;5.25;;;2.47;;
35312;SDS011;21425;50.454;30.466;2022-08-01T08:02:10;3.03;;;2.08;;
35312;SDS011;21425;50.454;30.466;2022-08-01T08:04:36;7.30;;;2.95;;
35312;SDS011;21425;50.454;30.466;2022-08-01T08:07:02;5.50;;;2.72;;
35312;SDS011;21425;50.454;30.466;2022-08-01T08:09:27;3.72;;;2.10;;
35312;SDS011;21425;50.454;30.466;2022-08-01T08:11:53;9.80;;;2.47;;
35312;SDS011;21425;50.454;30.466;2022-08-01T08:14:19;6.55;;;2.50;;
35312;SDS011;21425;50.454;30.466;2022-08-01T08:16:47;7.07;;;2.30;;
35312;SDS011;21425;50.454;30.466;2022-08-01T08:19:13;4.95;;;2.40;;
35312;SDS011;21425;50.454;30.466;2022-08-01T08:21:39;9.90;;;2.65;;
35312;SDS011;21425;50.454;30.466;2022-08-01T08:24:05;12.68;;;2.30;;
35312;SDS011;21425;50.454;30.466;2022-08-01T08:26:44;8.60;;;2.78;;
35312;SDS011;21425;50.454;30.466;2022-08-01T08:29:13;7.15;;;2.47;;
35312;SDS011;21425;50.454;30.466;2022-08-01T08:31:39;8.93;;;2.22;;
35312;SDS011;21425;50.454;30.466;2022-08-01T08:34:05;8.30;;;2.65;;
35312;SDS011;21425;50.454;30.466;2022-08-01T08:36:31;6.60;;;2.85;;
35312;SDS011;21425;50.454;30.466;2022-08-01T08:39:00;4.22;;;2.53;;
35312;SDS011;21425;50.454;30.466;2022-08-01T08:41:25;3.90;;;2.75;;
35312;SDS011;21425;50.454;30.466;2022-08-01T08:43:51;3.85;;;2.65;;
35312;SDS011;21425;50.454;30.466;2022-08-01T08:46:18;6.57;;;2.72;;
35312;SDS011;21425;50.454;30.466;2022-08-01T08:48:45;4.13;;;2.80;;
35312;SDS011;21425;50.454;30.466;2022-08-01T08:51:11;6.18;;;2.67;;
35312;SDS011;21425;50.454;30.466;2022-08-01T08:53:41;13.32;;;3.60;;
35312;SDS011;21425;50.454;30.466;2022-08-01T08:56:08;7.78;;;2.97;;
35312;SDS011;21425;50.454;30.466;2022-08-01T08:58:37;6.65;;;3.22;;
35312;SDS011;21425;50.454;30.466;2022-08-01T09:01:05;8.15;;;2.75;;
35312;SDS011;21425;50.454;30.466;2022-08-01T09:03:32;11.15;;;3.35;;
35312;SDS011;21425;50.454;30.466;2022-08-01T09:05:58;6.22;;;2.88;;
35312;SDS011;21425;50.454;30.466;2022-08-01T09:08:23;6.00;;;3.17;;
35312;SDS011;21425;50.454;30.466;2022-08-01T09:10:49;6.93;;;2.80;;
35312;SDS011;21425;50.454;30.466;2022-08-01T09:13:15;8.38;;;3.65;;
35312;SDS011;21425;50.454;30.466;2022-08-01T09:18:25;5.80;;;3.20;;
35312;SDS011;21425;50.454;30.466;2022-08-01T09:21:06;7.30;;;3.47;;
35312;SDS011;21425;50.454;30.466;2022-08-01T09:28:41;10.70;;;4.20;;
35312;SDS011;21425;50.454;30.466;2022-08-01T09:31:11;4.72;;;3.20;;
35312;SDS011;21425;50.454;30.466;2022-08-01T09:36:14;5.53;;;4.05;;
35312;SDS011;21425;50.454;30.466;2022-08-01T09:38:39;10.40;;;3.65;;
35312;SDS011;21425;50.454;30.466;2022-08-01T09:41:05;6.82;;;3.53;;
35312;SDS011;21425;50.454;30.466;2022-08-01T09:43:32;7.88;;;3.13;;
35312;SDS011;21425;50.454;30.466;2022-08-01T09:45:58;5.80;;;3.88;;
35312;SDS011;21425;50.454;30.466;2022-08-01T09:49:00;7.50;;;3.75;;
35312;SDS011;21425;50.454;30.466;2022-08-01T09:54:03;10.80;;;3.75;;
35312;SDS011;21425;50.454;30.466;2022-08-01T09:56:40;8.00;;;3.15;;
35312;SDS011;21425;50.454;30.466;2022-08-01T09:59:10;5.25;;;3.78;;
35312;SDS011;21425;50.454;30.466;2022-08-01T10:01:46;6.28;;;4.15;;
35312;SDS011;21425;50.454;30.466;2022-08-01T10:04:20;4.13;;;3.28;;
35312;SDS011;21425;50.454;30.466;2022-08-01T10:06:50;9.02;;;3.83;;
35312;SDS011;21425;50.454;30.466;2022-08-01T10:09:29;8.98;;;4.10;;
35312;SDS011;21425;50.454;30.466;2022-08-01T10:11:55;10.02;;;3.58;;
35312;SDS011;21425;50.454;30.466;2022-08-01T10:14:22;5.00;;;3.40;;
35312;SDS011;21425;50.454;30.466;2022-08-01T10:16:51;8.63;;;3.80;;
35312;SDS011;21425;50.454;30.466;2022-08-01T10:19:18;5.97;;;3.80;;
35312;SDS011;21425;50.454;30.466;2022-08-01T10:21:47;9.07;;;4.18;;
35312;SDS011;21425;50.454;30.466;2022-08-01T10:24:17;5.30;;;3.67;;
35312;SDS011;21425;50.454;30.466;2022-08-01T10:26:44;5.82;;;3.65;;
35312;SDS011;21425;50.454;30.466;2022-08-01T10:29:15;7.10;;;3.38;;
35312;SDS011;21425;50.454;30.466;2022-08-01T10:31:43;7.20;;;3.83;;
35312;SDS011;21425;50.454;30.466;2022-08-01T10:34:10;11.60;;;4.63;;
35312;SDS011;21425;50.454;30.466;2022-08-01T10:36:36;9.18;;;3.80;;
35312;SDS011;21425;50.454;30.466;2022-08-01T10:39:04;9.20;;;3.80;;
35312;SDS011;21425;50.454;30.466;2022-08-01T10:41:31;8.73;;;3.60;;
35312;SDS011;21425;50.454;30.466;2022-08-01T10:43:58;5.95;;;3.75;;
35312;SDS011;21425;50.454;30.466;2022-08-01T10:46:25;7.53;;;4.15;;
35312;SDS011;21425;50.454;30.466;2022-08-01T10:49:02;8.90;;;4.38;;
35312;SDS011;21425;50.454;30.466;2022-08-01T10:51:39;8.60;;;3.90;;
35312;SDS011;21425;50.454;30.466;2022-08-01T10:54:06;8.52;;;3.80;;
35312;SDS011;21425;50.454;30.466;2022-08-01T10:56:44;12.05;;;4.47;;
35312;SDS011;21425;50.454;30.466;2022-08-01T10:59:31;5.70;;;3.95;;
35312;SDS011;21425;50.454;30.466;2022-08-01T11:01:57;5.53;;;3.53;;
35312;SDS011;21425;50.454;30.466;2022-08-01T11:07:07;4.90;;;3.38;;
35312;SDS011;21425;50.454;30.466;2022-08-01T11:09:43;6.93;;;3.60;;
35312;SDS011;21425;50.454;30.466;2022-08-01T11:12:14;7.78;;;3.15;;
35312;SDS011;21425;50.454;30.466;2022-08-01T11:17:41;9.63;;;3.90;;
35312;SDS011;21425;50.454;30.466;2022-08-01T11:20:15;8.18;;;3.97;;
35312;SDS011;21425;50.454;30.466;2022-08-01T11:30:48;4.85;;;3.35;;
35312;SDS011;21425;50.454;30.466;2022-08-01T11:33:16;8.13;;;4.03;;
35312;SDS011;21425;50.454;30.466;2022-08-01T11:44:02;8.20;;;4.13;;
35312;SDS011;21425;50.454;30.466;2022-08-01T11:57:27;10.27;;;4.40;;
35312;SDS011;21425;50.454;30.466;2022-08-01T12:00:12;6.00;;;4.28;;
35312;SDS011;21425;50.454;30.466;2022-08-01T12:02:42;11.52;;;4.60;;
35312;SDS011;21425;50.454;30.466;2022-08-01T12:05:10;8.25;;;4.88;;
35312;SDS011;21425;50.454;30.466;2022-08-01T12:07:39;9.68;;;5.03;;
35312;SDS011;21425;50.454;30.466;2022-08-01T12:12:33;8.70;;;4.15;;
35312;SDS011;21425;50.454;30.466;2022-08-01T12:15:00;7.03;;;4.07;;
35312;SDS011;21425;50.454;30.466;2022-08-01T12:17:32;6.18;;;4.05;;
35312;SDS011;21425;50.454;30.466;2022-08-01T12:20:02;8.32;;;4.30;;
35312;SDS011;21425;50.454;30.466;2022-08-01T12:22:29;6.50;;;4.07;;
35312;SDS011;21425;50.454;30.466;2022-08-01T12:24:55;9.88;;;4.63;;
35312;SDS011;21425;50.454;30.466;2022-08-01T12:27:29;7.32;;;3.75;;
35312;SDS011;21425;50.454;30.466;2022-08-01T12:29:56;5.10;;;4.10;;
35312;SDS011;21425;50.454;30.466;2022-08-01T12:32:24;10.00;;;4.05;;
35312;SDS011;21425;50.454;30.466;2022-08-01T12:34:52;5.53;;;3.95;;
35312;SDS011;21425;50.454;30.466;2022-08-01T12:37:19;16.27;;;4.68;;
35312;SDS011;21425;50.454;30.466;2022-08-01T12:39:45;11.23;;;4.80;;
35312;SDS011;21425;50.454;30.466;2022-08-01T12:42:11;6.97;;;4.35;;
35312;SDS011;21425;50.454;30.466;2022-08-01T12:44:37;11.25;;;4.10;;
35312;SDS011;21425;50.454;30.466;2022-08-01T12:47:05;7.47;;;4.45;;
35312;SDS011;21425;50.454;30.466;2022-08-01T12:49:32;6.53;;;4.57;;
35312;SDS011;21425;50.454;30.466;2022-08-01T12:52:00;9.70;;;4.25;;
35312;SDS011;21425;50.454;30.466;2022-08-01T12:54:26;4.78;;;3.65;;
35312;SDS011;21425;50.454;30.466;2022-08-01T12:56:52;6.30;;;4.43;;
35312;SDS011;21425;50.454;30.466;2022-08-01T12:59:25;5.88;;;4.05;;
35312;SDS011;21425;50.454;30.466;2022-08-01T13:01:52;5.95;;;4.07;;
35312;SDS011;21425;50.454;30.466;2022-08-01T13:04:19;5.43;;;3.97;;
35312;SDS011;21425;50.454;30.466;2022-08-01T13:06:45;6.55;;;3.92;;
35312;SDS011;21425;50.454;30.466;2022-08-01T13:09:11;9.48;;;4.05;;
35312;SDS011;21425;50.454;30.466;2022-08-01T13:11:38;9.90;;;4.10;;
35312;SDS011;21425;50.454;30.466;2022-08-01T13:14:08;15.13;;;4.40;;
35312;SDS011;21425;50.454;30.466;2022-08-01T13:16:45;6.57;;;3.72;;
35312;SDS011;21425;50.454;30.466;2022-08-01T13:19:11;10.68;;;4.28;;
35312;SDS011;21425;50.454;30.466;2022-08-01T13:21:37;10.45;;;4.00;;
35312;SDS011;21425;50.454;30.466;2022-08-01T13:24:06;8.05;;;4.20;;
35312;SDS011;21425;50.454;30.466;2022-08-01T13:29:21;5.10;;;4.00;;
35312;SDS011;21425;50.454;30.466;2022-08-01T13:31:54;6.85;;;3.95;;
35312;SDS011;21425;50.454;30.466;2022-08-01T13:34:29;7.45;;;3.72;;
35312;SDS011;21425;50.454;30.466;2022-08-01T13:36:55;6.93;;;3.88;;
35312;SDS011;21425;50.454;30.466;2022-08-01T13:39:21;4.28;;;3.72;;
35312;SDS011;21425;50.454;30.466;2022-08-01T13:42:05;6.20;;;3.88;;
35312;SDS011;21425;50.454;30.466;2022-08-01T13:44:34;4.32;;;3.42;;
35312;SDS011;21425;50.454;30.466;2022-08-01T13:47:01;8.88;;;4.00;;
35312;SDS011;21425;50.454;30.466;2022-08-01T13:49:28;5.32;;;3.42;;
35312;SDS011;21425;50.454;30.466;2022-08-01T13:51:53;5.63;;;3.47;;
35312;SDS011;21425;50.454;30.466;2022-08-01T13:54:19;7.18;;;4.00;;
35312;SDS011;21425;50.454;30.466;2022-08-01T13:56:45;4.30;;;3.40;;
35312;SDS011;21425;50.454;30.466;2022-08-01T13:59:11;4.43;;;3.22;;
35312;SDS011;21425;50.454;30.466;2022-08-01T14:01:37;5.57;;;3.38;;
35312;SDS011;21425;50.454;30.466;2022-08-01T14:04:02;15.93;;;4.18;;
35312;SDS011;21425;50.454;30.466;2022-08-01T14:06:28;5.35;;;3.58;;
35312;SDS011;21425;50.454;30.466;2022-08-01T14:08:54;3.88;;;3.42;;
35312;SDS011;21425;50.454;30.466;2022-08-01T14:11:20;7.25;;;3.50;;
35312;SDS011;21425;50.454;30.466;2022-08-01T14:13:45;4.50;;;2.88;;
35312;SDS011;21425;50.454;30.466;2022-08-01T14:16:11;6.40;;;3.60;;
35312;SDS011;21425;50.454;30.466;2022-08-01T14:18:36;5.65;;;3.25;;
35312;SDS011;21425;50.454;30.466;2022-08-01T14:21:02;8.00;;;3.63;;
35312;SDS011;21425;50.454;30.466;2022-08-01T14:23:28;9.52;;;3.28;;
35312;SDS011;21425;50.454;30.466;2022-08-01T14:25:53;10.10;;;3.40;;
35312;SDS011;21425;50.454;30.466;2022-08-01T14:28:19;6.53;;;3.63;;
35312;SDS011;21425;50.454;30.466;2022-08-01T14:30:45;7.20;;;3.80;;
35312;SDS011;21425;50.454;30.466;2022-08-01T14:33:11;5.32;;;3.55;;
35312;SDS011;21425;50.454;30.466;2022-08-01T14:35:37;14.48;;;3.97;;
35312;SDS011;21425;50.454;30.466;2022-08-01T14:38:03;7.80;;;3.10;;
35312;SDS011;21425;50.454;30.466;2022-08-01T14:40:29;4.78;;;3.47;;
35312;SDS011;21425;50.454;30.466;2022-08-01T14:42:55;5.22;;;2.75;;
35312;SDS011;21425;50.454;30.466;2022-08-01T14:45:20;5.93;;;3.15;;
35312;SDS011;21425;50.454;30.466;2022-08-01T14:47:46;5.47;;;3.00;;
35312;SDS011;21425;50.454;30.466;2022-08-01T14:50:12;4.95;;;4.00;;
35312;SDS011;21425;50.454;30.466;2022-08-01T14:52:39;6.82;;;3.33;;
35312;SDS011;21425;50.454;30.466;2022-08-01T14:55:07;8.43;;;4.07;;
35312;SDS011;21425;50.454;30.466;2022-08-01T14:57:35;9.82;;;3.78;;
35312;SDS011;21425;50.454;30.466;2022-08-01T15:00:03;7.90;;;3.15;;
35312;SDS011;21425;50.454;30.466;2022-08-01T15:02:30;10.80;;;3.97;;
35312;SDS011;21425;50.454;30.466;2022-08-01T15:04:56;5.20;;;3.90;;
35312;SDS011;21425;50.454;30.466;2022-08-01T15:07:21;6.22;;;3.20;;
35312;SDS011;21425;50.454;30.466;2022-08-01T15:09:47;5.72;;;3.72;;
35312;SDS011;21425;50.454;30.466;2022-08-01T15:12:12;10.07;;;3.40;;
35312;SDS011;21425;50.454;30.466;2022-08-01T15:14:38;7.43;;;3.63;;
35312;SDS011;21425;50.454;30.466;2022-08-01T15:17:20;6.78;;;3.70;;
35312;SDS011;21425;50.454;30.466;2022-08-01T15:19:51;9.52;;;4.65;;
35312;SDS011;21425;50.454;30.466;2022-08-01T15:22:18;4.88;;;3.55;;
35312;SDS011;21425;50.454;30.466;2022-08-01T15:24:46;6.18;;;3.63;;
35312;SDS011;21425;50.454;30.466;2022-08-01T15:27:12;8.05;;;4.20;;
35312;SDS011;21425;50.454;30.466;2022-08-01T15:29:38;5.57;;;3.78;;
35312;SDS011;21425;50.454;30.466;2022-08-01T15:32:04;6.63;;;4.50;;
35312;SDS011;21425;50.454;30.466;2022-08-01T15:34:31;9.85;;;4.15;;
35312;SDS011;21425;50.454;30.466;2022-08-01T15:37:00;4.85;;;3.88;;
35312;SDS011;21425;50.454;30.466;2022-08-01T15:39:26;7.90;;;4.28;;
35312;SDS011;21425;50.454;30.466;2022-08-01T15:41:52;8.00;;;4.05;;